createdAt,value
2022-08-17T00:03:17.207Z,22.24
2022-08-17T00:06:42.047Z,22.18
2022-08-17T00:10:07.024Z,22.13
2022-08-17T00:13:41.047Z,22.01
2022-08-17T00:17:05.053Z,21.95
2022-08-17T00:20:30.557Z,21.86
2022-08-17T00:23:57.048Z,21.81
2022-08-17T00:27:18.050Z,21.74
2022-08-17T00:30:50.970Z,21.64
2022-08-17T00:34:12.062Z,21.56
2022-08-17T00:37:33.052Z,21.50
2022-08-17T00:40:59.465Z,21.45
2022-08-17T00:44:20.073Z,21.41
2022-08-17T00:47:41.044Z,21.38
2022-08-17T00:51:17.051Z,21.34
2022-08-17T00:54:51.057Z,21.29
2022-08-17T00:58:15.058Z,21.28
2022-08-17T01:01:36.110Z,21.25
2022-08-17T01:05:00.102Z,21.21
2022-08-17T01:08:26.070Z,21.17
2022-08-17T01:11:47.067Z,21.15
2022-08-17T01:15:08.066Z,21.14
2022-08-17T01:18:29.053Z,21.16
2022-08-17T01:22:14.048Z,21.13
2022-08-17T01:25:36.073Z,21.09
2022-08-17T01:28:57.059Z,21.07
2022-08-17T01:32:20.069Z,21.09
2022-08-17T01:35:41.059Z,21.08
2022-08-17T01:39:02.080Z,21.06
2022-08-17T01:42:36.041Z,21.05
2022-08-17T01:46:02.706Z,21.01
2022-08-17T01:49:26.096Z,21.01
2022-08-17T01:52:47.158Z,21.01
2022-08-17T01:56:12.092Z,21.00
2022-08-17T01:59:34.059Z,20.98
2022-08-17T02:02:55.099Z,20.99
2022-08-17T02:06:27.721Z,21.05
2022-08-17T02:09:52.799Z,21.11
2022-08-17T02:13:15.109Z,21.13
2022-08-17T02:16:38.229Z,21.13
2022-08-17T02:19:59.073Z,21.11
2022-08-17T02:23:21.082Z,21.11
2022-08-17T02:26:42.068Z,21.12
2022-08-17T02:30:03.100Z,21.17
2022-08-17T02:33:24.079Z,21.23
2022-08-17T02:37:03.095Z,21.27
2022-08-17T02:40:36.308Z,21.35
2022-08-17T02:44:03.097Z,21.41
2022-08-17T02:47:18.086Z,21.41
2022-08-17T02:50:39.128Z,21.42
2022-08-17T02:54:02.210Z,21.46
2022-08-17T02:57:34.092Z,21.51
2022-08-17T03:00:57.085Z,21.56
2022-08-17T03:04:18.102Z,21.60
2022-08-17T03:07:39.108Z,21.63
2022-08-17T03:11:00.091Z,21.68
2022-08-17T03:14:21.106Z,21.74
2022-08-17T03:17:47.097Z,21.82
2022-08-17T03:21:11.112Z,21.88
2022-08-17T03:24:32.112Z,21.94
2022-08-17T03:27:53.127Z,22.01
2022-08-17T03:31:14.104Z,22.11
2022-08-17T03:34:35.128Z,22.21
2022-08-17T03:38:00.277Z,22.29
2022-08-17T03:41:22.138Z,22.38
2022-08-17T03:44:43.122Z,22.46
2022-08-17T03:48:16.133Z,22.53
2022-08-17T03:51:56.116Z,22.61
2022-08-17T03:55:36.205Z,22.67
2022-08-17T03:58:57.110Z,22.75
2022-08-17T04:02:50.257Z,22.81
2022-08-17T04:06:11.178Z,22.86
2022-08-17T04:09:32.117Z,22.95
2022-08-17T04:12:58.134Z,23.10
2022-08-17T04:16:19.136Z,23.17
2022-08-17T04:19:40.146Z,23.25
2022-08-17T04:23:21.128Z,23.37
2022-08-17T04:26:53.923Z,23.48
2022-08-17T04:30:16.128Z,23.62
2022-08-17T04:33:40.129Z,23.75
2022-08-17T04:37:01.134Z,23.88
2022-08-17T04:40:40.131Z,24.04
2022-08-17T04:44:05.136Z,24.16
2022-08-17T04:47:26.126Z,24.30
2022-08-17T04:50:54.124Z,24.43
2022-08-17T04:54:27.128Z,24.51
2022-08-17T04:57:48.123Z,24.59
2022-08-17T05:01:09.163Z,24.59
2022-08-17T05:04:34.422Z,24.63
2022-08-17T05:07:56.128Z,24.65
2022-08-17T05:11:17.161Z,24.70
2022-08-17T05:14:38.136Z,24.72
2022-08-17T05:17:59.147Z,24.78
2022-08-17T05:21:20.144Z,24.84
2022-08-17T05:24:43.323Z,24.90
2022-08-17T05:28:14.141Z,24.99
2022-08-17T05:31:37.146Z,25.07
2022-08-17T05:34:58.137Z,25.15
2022-08-17T05:38:20.151Z,25.25
2022-08-17T05:41:41.139Z,25.38
2022-08-17T05:45:02.177Z,25.51
2022-08-17T05:48:35.479Z,25.64
2022-08-17T05:52:25.150Z,25.75
2022-08-17T05:55:54.167Z,25.79
2022-08-17T05:59:42.157Z,25.83
2022-08-17T06:03:40.167Z,25.92
2022-08-17T06:07:12.160Z,26.01
2022-08-17T06:10:45.202Z,26.05
2022-08-17T06:14:22.159Z,26.15
2022-08-17T06:17:43.224Z,26.25
2022-08-17T06:21:10.190Z,26.32
2022-08-17T06:24:46.169Z,26.37
2022-08-17T06:28:16.156Z,26.47
2022-08-17T06:31:45.180Z,26.54
2022-08-17T06:35:07.161Z,26.65
2022-08-17T06:38:39.234Z,26.72
2022-08-17T06:42:55.126Z,26.78
2022-08-17T06:46:24.172Z,26.93
2022-08-17T06:50:03.200Z,27.08
2022-08-17T06:53:40.183Z,27.16
2022-08-17T06:57:32.170Z,27.27
2022-08-17T07:00:59.293Z,27.31
2022-08-17T07:04:24.175Z,27.39
2022-08-17T07:07:58.199Z,27.45
2022-08-17T07:11:27.210Z,27.52
2022-08-17T07:15:02.235Z,27.58
2022-08-17T07:18:23.196Z,27.62
2022-08-17T07:21:51.205Z,27.62
2022-08-17T07:25:16.210Z,27.69
2022-08-17T07:28:43.213Z,27.82
2022-08-17T07:32:04.180Z,27.94
2022-08-17T07:35:37.826Z,28.00
2022-08-17T07:39:10.185Z,28.11
2022-08-17T07:42:31.199Z,28.19
2022-08-17T07:46:52.208Z,28.29
2022-08-17T07:50:15.208Z,28.36
2022-08-17T07:53:39.179Z,28.45
2022-08-17T07:57:29.911Z,28.50
2022-08-17T08:00:51.204Z,28.63
2022-08-17T08:04:16.333Z,28.77
2022-08-17T08:07:38.313Z,28.81
2022-08-17T08:11:12.218Z,28.88
2022-08-17T08:14:41.261Z,28.96
2022-08-17T08:18:10.177Z,29.00
2022-08-17T08:21:57.258Z,29.07
2022-08-17T08:25:56.223Z,29.14
2022-08-17T08:29:51.236Z,29.23
2022-08-17T08:33:45.221Z,29.21
2022-08-17T08:37:49.292Z,29.27
2022-08-17T08:41:21.218Z,29.27
2022-08-17T08:45:03.875Z,29.35
2022-08-17T08:48:53.692Z,29.50
2022-08-17T08:52:42.218Z,29.58
2022-08-17T08:56:06.240Z,29.68
2022-08-17T08:59:58.202Z,29.77
2022-08-17T09:03:37.632Z,29.82
2022-08-17T09:07:31.260Z,29.85
2022-08-17T09:11:06.205Z,29.90
2022-08-17T09:15:16.235Z,29.93
2022-08-17T09:22:31.247Z,29.97
2022-08-17T09:26:44.236Z,30.02
2022-08-17T09:30:13.237Z,30.11
2022-08-17T09:33:38.218Z,30.20
2022-08-17T09:37:12.210Z,30.27
2022-08-17T09:41:12.230Z,30.33
2022-08-17T09:45:17.268Z,30.44
2022-08-17T09:49:02.242Z,30.54
2022-08-17T09:52:39.240Z,30.58
2022-08-17T09:56:18.225Z,30.63
2022-08-17T09:59:45.241Z,30.67
2022-08-17T10:03:27.223Z,30.66
2022-08-17T10:07:08.259Z,30.71
2022-08-17T10:10:36.236Z,30.84
2022-08-17T10:14:36.950Z,30.94
2022-08-17T10:18:08.242Z,30.96
2022-08-17T10:21:50.249Z,30.95
2022-08-17T10:25:56.472Z,30.92
2022-08-17T10:29:26.275Z,30.93
2022-08-17T10:33:01.314Z,31.08
2022-08-17T10:36:59.256Z,31.27
2022-08-17T10:40:39.268Z,31.40
2022-08-17T10:44:37.209Z,31.48
2022-08-17T10:48:13.648Z,31.48
2022-08-17T10:51:55.264Z,31.56
2022-08-17T10:55:22.236Z,31.61
2022-08-17T10:58:52.250Z,31.60
2022-08-17T11:02:35.235Z,31.54
2022-08-17T11:06:22.263Z,31.54
2022-08-17T11:10:02.253Z,31.62
2022-08-17T11:13:55.265Z,31.58
2022-08-17T11:18:08.258Z,31.58
2022-08-17T11:21:57.242Z,31.59
2022-08-17T11:25:45.268Z,31.78
2022-08-17T11:29:12.282Z,31.91
2022-08-17T11:32:59.247Z,32.00
2022-08-17T11:36:37.268Z,32.09
2022-08-17T11:40:11.365Z,32.20
2022-08-17T11:44:02.274Z,32.25
2022-08-17T11:48:25.917Z,32.31
2022-08-17T11:52:14.273Z,32.28
2022-08-17T11:56:10.292Z,32.31
2022-08-17T11:59:47.280Z,32.49
2022-08-17T12:03:33.404Z,32.62
2022-08-17T12:07:01.262Z,32.70
2022-08-17T12:10:43.310Z,32.96
2022-08-17T12:14:11.642Z,33.13
2022-08-17T12:17:42.352Z,33.23
2022-08-17T12:21:42.326Z,33.27
2022-08-17T12:25:11.281Z,33.18
2022-08-17T12:28:44.290Z,33.17
2022-08-17T12:32:08.373Z,33.20
2022-08-17T12:35:43.270Z,33.15
2022-08-17T12:39:14.754Z,33.01
2022-08-17T12:42:51.292Z,32.94
2022-08-17T12:46:13.310Z,33.40
2022-08-17T12:49:46.295Z,35.13
2022-08-17T12:53:07.279Z,36.74
2022-08-17T12:56:28.277Z,37.73
2022-08-17T12:59:55.302Z,38.64
2022-08-17T13:03:20.288Z,39.30
2022-08-17T13:06:46.305Z,39.13
2022-08-17T13:10:07.298Z,38.86
2022-08-17T13:13:38.304Z,38.55
2022-08-17T13:17:13.571Z,38.91
2022-08-17T13:20:34.321Z,39.30
2022-08-17T13:23:55.317Z,39.68
2022-08-17T13:27:16.313Z,39.89
2022-08-17T13:30:41.289Z,40.49
2022-08-17T13:34:02.310Z,41.26
2022-08-17T13:37:48.695Z,41.81
2022-08-17T13:41:10.305Z,42.15
2022-08-17T13:44:44.306Z,42.47
2022-08-17T13:48:18.316Z,43.02
2022-08-17T13:51:43.300Z,43.57
2022-08-17T13:55:05.303Z,43.65
2022-08-17T13:58:34.360Z,43.70
2022-08-17T14:02:01.395Z,43.68
2022-08-17T14:05:22.319Z,43.97
2022-08-17T14:08:46.310Z,44.31
2022-08-17T14:12:10.345Z,44.48
2022-08-17T14:15:55.024Z,44.09
2022-08-17T14:19:16.318Z,43.23
2022-08-17T14:22:44.312Z,42.40
2022-08-17T14:26:05.328Z,42.42
2022-08-17T14:29:26.305Z,42.60
2022-08-17T14:32:50.336Z,42.58
2022-08-17T14:36:11.308Z,42.91
2022-08-17T14:39:32.360Z,43.64
2022-08-17T14:42:48.405Z,43.84
2022-08-17T14:46:02.341Z,43.47
2022-08-17T14:49:27.306Z,43.37
2022-08-17T14:52:48.308Z,43.42
2022-08-17T14:56:09.313Z,43.45
2022-08-17T14:59:30.343Z,42.96
2022-08-17T15:03:05.339Z,42.10
2022-08-17T15:06:26.308Z,41.51
2022-08-17T15:09:48.329Z,41.28
2022-08-17T15:13:12.315Z,40.89
2022-08-17T15:16:33.325Z,40.54
2022-08-17T15:19:54.365Z,40.48
2022-08-17T15:23:16.336Z,41.01
2022-08-17T15:26:37.314Z,41.49
2022-08-17T15:29:58.361Z,41.75
2022-08-17T15:33:19.335Z,41.54
2022-08-17T15:36:40.667Z,41.23
2022-08-17T15:40:10.347Z,40.90
2022-08-17T15:43:42.348Z,39.99
2022-08-17T15:47:03.355Z,38.91
2022-08-17T15:50:24.349Z,37.84
2022-08-17T15:53:45.337Z,37.00
2022-08-17T15:57:06.359Z,36.23
2022-08-17T16:00:27.340Z,35.22
2022-08-17T16:04:03.753Z,34.12
2022-08-17T16:07:29.363Z,33.03
2022-08-17T16:10:50.373Z,32.26
2022-08-17T16:14:11.326Z,31.76
2022-08-17T16:17:40.029Z,31.37
2022-08-17T16:21:01.358Z,31.10
2022-08-17T16:24:22.361Z,30.90
2022-08-17T16:27:43.447Z,30.72
2022-08-17T16:31:04.433Z,30.50
2022-08-17T16:34:25.347Z,30.28
2022-08-17T16:37:47.375Z,30.08
2022-08-17T16:41:08.333Z,29.88
2022-08-17T16:44:30.388Z,29.67
2022-08-17T16:47:51.397Z,29.48
2022-08-17T16:51:12.392Z,29.30
2022-08-17T16:54:33.379Z,29.12
2022-08-17T16:57:54.401Z,28.93
2022-08-17T17:01:15.388Z,28.73
2022-08-17T17:04:46.371Z,28.54
2022-08-17T17:08:32.364Z,28.35
2022-08-17T17:12:08.367Z,28.17
2022-08-17T17:15:30.360Z,28.01
2022-08-17T17:19:05.359Z,27.89
2022-08-17T17:22:26.394Z,27.75
2022-08-17T17:25:54.365Z,27.66
2022-08-17T17:29:48.492Z,27.57
2022-08-17T17:33:46.404Z,27.43
2022-08-17T17:37:11.365Z,27.36
2022-08-17T17:40:37.413Z,27.33
2022-08-17T17:44:01.809Z,27.24
2022-08-17T17:47:17.410Z,27.19
2022-08-17T17:50:48.442Z,27.10
2022-08-17T17:54:18.406Z,27.04
2022-08-17T17:58:01.384Z,26.98
2022-08-17T18:01:34.469Z,26.91
2022-08-17T18:05:06.418Z,26.78
2022-08-17T18:08:40.407Z,26.72
2022-08-17T18:12:05.394Z,26.63
2022-08-17T18:15:43.394Z,26.56
2022-08-17T18:19:06.133Z,26.50
2022-08-17T18:22:34.392Z,26.43
2022-08-17T18:26:07.435Z,26.37
2022-08-17T18:30:04.574Z,26.30
2022-08-17T18:33:36.401Z,26.26
2022-08-17T18:36:57.381Z,26.20
2022-08-17T18:40:30.491Z,26.13
2022-08-17T18:43:53.334Z,26.08
2022-08-17T18:47:37.388Z,26.05
2022-08-17T18:50:59.389Z,26.01
2022-08-17T18:54:28.388Z,25.99
2022-08-17T18:57:56.407Z,25.95
2022-08-17T19:01:46.983Z,25.91
2022-08-17T19:05:15.544Z,25.86
2022-08-17T19:08:42.434Z,25.81
2022-08-17T19:12:03.421Z,25.74
2022-08-17T19:15:27.399Z,25.68
2022-08-17T19:18:57.405Z,25.62
2022-08-17T19:22:33.386Z,25.55
2022-08-17T19:26:01.412Z,25.52
2022-08-17T19:29:28.538Z,25.50
2022-08-17T19:32:50.467Z,25.47
2022-08-17T19:36:14.429Z,25.40
2022-08-17T19:39:38.811Z,25.34
2022-08-17T19:43:15.411Z,25.30
2022-08-17T19:46:48.688Z,25.28
2022-08-17T19:50:30.491Z,25.27
2022-08-17T19:54:07.523Z,25.25
2022-08-17T19:57:57.557Z,25.26
2022-08-17T20:01:22.500Z,25.25
2022-08-17T20:04:43.449Z,25.20
2022-08-17T20:08:10.443Z,25.19
2022-08-17T20:11:37.418Z,25.17
2022-08-17T20:15:09.423Z,25.12
2022-08-17T20:18:56.452Z,25.03
2022-08-17T20:22:31.434Z,24.91
2022-08-17T20:26:05.467Z,24.82
2022-08-17T20:29:37.182Z,24.74
2022-08-17T20:33:07.463Z,24.71
2022-08-17T20:36:38.470Z,24.68
2022-08-17T20:40:19.553Z,24.67
2022-08-17T20:43:46.463Z,24.69
2022-08-17T20:47:18.421Z,24.70
2022-08-17T20:50:39.429Z,24.70
2022-08-17T20:54:00.433Z,24.67
2022-08-17T20:57:22.426Z,24.61
2022-08-17T21:00:44.428Z,24.58
2022-08-17T21:04:06.444Z,24.59
2022-08-17T21:07:49.409Z,24.56
2022-08-17T21:11:12.468Z,24.47
2022-08-17T21:14:38.457Z,24.42
2022-08-17T21:18:14.433Z,24.36
2022-08-17T21:21:56.444Z,24.31
2022-08-17T21:25:39.451Z,24.29
2022-08-17T21:29:29.833Z,24.19
2022-08-17T21:32:53.450Z,24.12
2022-08-17T21:36:16.454Z,24.08
2022-08-17T21:39:46.480Z,24.03
2022-08-17T21:43:17.450Z,23.94
2022-08-17T21:46:46.650Z,23.87
2022-08-17T21:50:11.457Z,23.83
2022-08-17T21:53:41.443Z,23.77
2022-08-17T21:57:02.452Z,23.74
2022-08-17T22:00:24.477Z,23.71
2022-08-17T22:03:45.465Z,23.67
2022-08-17T22:07:07.500Z,23.62
2022-08-17T22:10:45.497Z,23.60
2022-08-17T22:14:06.486Z,23.56
2022-08-17T22:17:31.458Z,23.53
2022-08-17T22:20:52.487Z,23.51
2022-08-17T22:24:20.458Z,23.46
2022-08-17T22:28:10.530Z,23.41
2022-08-17T22:31:37.486Z,23.34
2022-08-17T22:34:58.463Z,23.31
2022-08-17T22:38:34.473Z,23.29
2022-08-17T22:42:01.468Z,23.23
2022-08-17T22:45:22.457Z,23.19
2022-08-17T22:48:43.464Z,23.19
2022-08-17T22:52:13.480Z,23.16
2022-08-17T22:55:52.477Z,23.09
2022-08-17T22:59:29.495Z,23.03
2022-08-17T23:02:55.288Z,23.01
2022-08-17T23:06:23.504Z,22.95
2022-08-17T23:09:44.478Z,22.90
2022-08-17T23:13:06.496Z,22.83
2022-08-17T23:16:28.492Z,22.73
2022-08-17T23:19:49.485Z,22.66
2022-08-17T23:23:11.505Z,22.57
2022-08-17T23:26:34.495Z,22.54
2022-08-17T23:29:56.491Z,22.54
2022-08-17T23:33:20.496Z,22.51
2022-08-17T23:36:41.493Z,22.51
2022-08-17T23:40:02.533Z,22.53
2022-08-17T23:43:28.213Z,22.52
2022-08-17T23:46:50.515Z,22.51
2022-08-17T23:50:12.475Z,22.45
2022-08-17T23:53:33.535Z,22.43
2022-08-17T23:56:54.506Z,22.36
